Date,TemperatureHighF,TemperatureAvgF,TemperatureLowF,DewpointHighF,DewpointAvgF,DewpointLowF,HumidityHigh,HumidityAvg,HumidityLow,PressureMaxIn,PressureMinIn,WindSpeedMaxMPH,WindSpeedAvgMPH,GustSpeedMaxMPH,PrecipitationSumIn
2013-10-1,54.0,43.5,38.0,46.0,42.2,38.0,99,95,64,29.85,29.72,3,2,6,0.07
2013-10-2,52.0,42.7,33.0,44.0,40.0,33.0,99,91,69,29.92,29.83,5,2,8,0.07
2013-10-3,65.0,43.3,32.0,47.0,37.9,32.0,99,85,40,30.17,29.86,4,2,7,0.01
2013-10-4,64.0,40.1,30.0,44.0,36.3,30.0,99,89,49,30.29,30.14,4,2,9,0.00
2013-10-5,64.0,46.2,36.0,46.0,41.4,36.0,99,86,47,30.17,30.03,4,1,6,0.00
2013-10-6,67.0,46.5,33.0,49.0,41.6,33.0,99,86,45,30.05,29.69,4,2,8,0.00
2013-10-7,66.0,45.6,35.0,48.0,41.7,35.0,99,88,44,29.69,29.48,8,2,19,0.11
2013-10-8,58.0,45.2,36.0,48.0,43.1,35.0,99,93,63,29.80,29.60,4,1,6,0.01
2013-10-9,61.0,44.3,31.0,47.0,40.5,31.0,99,88,47,29.88,29.62,3,2,8,0.01
2013-10-10,58.0,45.9,32.0,48.0,42.4,31.0,99,88,65,29.78,29.59,9,2,15,0.00
2013-10-11,57.0,38.5,28.0,43.0,34.7,28.0,99,88,50,29.91,29.78,4,2,8,0.00
2013-10-12,61.0,42.7,32.0,43.0,35.2,-99.9,99,79,47,29.94,29.80,4,2,8,0.00
2013-10-13,60.0,36.6,27.0,42.0,32.3,27.0,99,87,40,30.08,29.94,4,2,8,0.00
2013-10-14,62.0,36.4,27.0,42.0,32.2,27.0,99,87,40,30.20,30.08,4,2,8,0.00
2013-10-15,59.0,38.5,27.0,41.0,34.4,27.0,99,87,50,30.20,29.94,4,2,9,0.00
2013-10-16,64.0,45.4,35.0,49.0,41.9,34.0,99,89,53,29.95,29.88,3,1,8,0.00
2013-10-17,62.0,38.5,28.0,46.0,35.3,28.0,99,90,48,30.06,29.96,4,2,8,0.00
2013-10-18,59.0,37.6,29.0,44.0,35.1,29.0,99,92,55,30.09,29.92,4,2,9,0.00
2013-10-19,59.0,38.3,29.0,47.0,35.5,-99.9,99,93,63,29.96,29.81,4,2,7,0.00
2013-10-20,65.0,46.4,35.0,49.0,42.2,35.0,99,87,54,29.95,29.83,4,2,9,0.00
2013-10-21,64.0,46.4,40.0,51.0,43.7,40.0,99,91,61,30.01,29.89,4,2,11,0.00
2013-10-22,61.0,46.0,40.0,51.0,44.0,40.0,99,93,67,30.02,29.88,4,2,12,0.00
2013-10-23,61.0,47.2,41.0,50.0,44.7,40.0,99,92,65,29.98,29.88,6,2,14,0.00
2013-10-24,62.0,46.6,40.0,49.0,43.7,39.0,99,91,63,29.94,29.83,4,2,11,0.00
2013-10-25,58.0,45.6,39.0,47.0,42.2,37.0,99,88,65,30.07,29.98,6,2,12,0.00
2013-10-26,56.0,43.0,34.0,46.0,39.4,-99.9,99,90,67,30.10,29.83,4,2,11,0.00
2013-10-27,49.0,44.3,40.0,48.0,40.9,27.0,99,89,51,29.83,29.63,7,2,14,0.07
2013-10-28,56.0,43.4,28.0,26.0,21.4,-99.9,77,45,29,29.86,29.72,8,4,17,0.01
2013-10-29,54.0,33.4,23.0,34.0,26.0,20.0,95,76,45,29.79,29.68,5,2,10,0.00
2013-10-30,46.0,31.6,22.0,33.0,27.5,21.0,99,85,58,29.84,29.75,3,2,5,0.00
2013-10-31,45.0,36.3,32.0,38.0,32.9,30.0,96,87,75,29.83,29.79,3,1,4,0.00